createdAt,value
2017-12-23T00:00:57.838Z,4.97
2017-12-23T00:03:26.114Z,5.13
2017-12-23T00:05:54.431Z,5.40
2017-12-23T00:08:22.700Z,5.07
2017-12-23T00:10:51.003Z,5.37
2017-12-23T00:13:19.313Z,4.97
2017-12-23T00:15:47.603Z,5.37
2017-12-23T00:18:15.819Z,4.80
2017-12-23T00:20:44.109Z,4.90
2017-12-23T00:23:12.412Z,5.03
2017-12-23T00:25:40.647Z,5.27
2017-12-23T00:28:08.948Z,4.80
2017-12-23T00:30:37.183Z,5.30
2017-12-23T00:33:05.480Z,4.83
2017-12-23T00:35:33.769Z,4.83
2017-12-23T00:38:02.054Z,4.43
2017-12-23T00:40:30.478Z,4.23
2017-12-23T00:42:58.810Z,4.00
2017-12-23T00:45:27.054Z,5.13
2017-12-23T00:47:55.306Z,4.30
2017-12-23T00:50:23.538Z,4.20
2017-12-23T00:52:51.811Z,4.10
2017-12-23T00:55:20.051Z,4.60
2017-12-23T00:57:48.322Z,3.93
2017-12-23T01:00:16.567Z,3.83
2017-12-23T01:02:44.819Z,4.27
2017-12-23T01:05:13.827Z,4.07
2017-12-23T01:07:42.852Z,3.63
2017-12-23T01:10:11.091Z,3.90
2017-12-23T01:12:39.347Z,4.00
2017-12-23T01:15:07.587Z,4.57
2017-12-23T01:17:35.908Z,4.10
2017-12-23T01:20:04.948Z,3.67
2017-12-23T01:22:33.256Z,3.47
2017-12-23T01:25:01.520Z,3.83
2017-12-23T01:27:29.834Z,3.30
2017-12-23T01:29:58.078Z,4.20
2017-12-23T01:32:26.331Z,3.60
2017-12-23T01:34:54.575Z,3.77
2017-12-23T01:37:22.847Z,3.80
2017-12-23T01:39:51.094Z,4.03
2017-12-23T01:42:19.339Z,3.90
2017-12-23T01:44:47.597Z,4.00
2017-12-23T01:47:15.855Z,3.60
2017-12-23T01:49:44.133Z,3.73
2017-12-23T01:52:12.369Z,3.77
2017-12-23T01:54:41.383Z,3.37
2017-12-23T01:57:09.634Z,3.40
2017-12-23T01:59:37.893Z,3.10
2017-12-23T02:02:06.896Z,3.10
2017-12-23T02:04:35.947Z,2.50
2017-12-23T02:07:04.198Z,2.50
2017-12-23T02:09:32.470Z,2.77
2017-12-23T02:12:00.850Z,2.50
2017-12-23T02:14:29.111Z,2.23
2017-12-23T02:16:57.351Z,2.40
2017-12-23T02:19:25.600Z,2.10
2017-12-23T02:21:54.602Z,1.90
2017-12-23T02:24:23.628Z,2.13
2017-12-23T02:26:51.879Z,2.10
2017-12-23T02:29:20.162Z,2.60
2017-12-23T02:31:48.402Z,2.33
2017-12-23T02:34:16.663Z,2.60
2017-12-23T02:36:45.678Z,2.67
2017-12-23T02:39:14.700Z,2.97
2017-12-23T02:41:42.951Z,2.77
2017-12-23T02:44:11.207Z,2.90
2017-12-23T02:46:39.443Z,3.00
2017-12-23T02:49:08.465Z,3.43
2017-12-23T02:51:37.463Z,3.67
2017-12-23T02:54:06.474Z,3.00
2017-12-23T02:56:34.747Z,3.60
2017-12-23T02:59:03.787Z,3.20
2017-12-23T03:01:32.163Z,3.10
2017-12-23T03:04:01.231Z,3.80
2017-12-23T03:06:29.480Z,3.50
2017-12-23T03:08:57.758Z,3.57
2017-12-23T03:11:26.007Z,3.57
2017-12-23T03:13:54.235Z,4.13
2017-12-23T03:16:22.486Z,4.20
2017-12-23T03:18:50.810Z,3.90
2017-12-23T03:21:20.466Z,4.10
2017-12-23T03:23:48.751Z,3.97
2017-12-23T03:26:17.011Z,4.00
2017-12-23T03:28:45.247Z,4.13
2017-12-23T03:31:13.495Z,4.73
2017-12-23T03:33:41.735Z,4.30
2017-12-23T03:36:09.982Z,4.00
2017-12-23T03:38:38.224Z,4.43
2017-12-23T03:41:06.478Z,5.30
2017-12-23T03:43:34.755Z,5.13
2017-12-23T03:46:03.013Z,5.20
2017-12-23T03:48:32.035Z,5.10
2017-12-23T03:51:00.312Z,5.30
2017-12-23T03:53:28.560Z,4.67
2017-12-23T03:55:56.808Z,5.00
2017-12-23T03:58:25.035Z,5.57
2017-12-23T04:00:53.287Z,4.97
2017-12-23T04:03:21.534Z,5.47
2017-12-23T04:05:50.583Z,4.57
2017-12-23T04:08:19.463Z,4.50
2017-12-23T04:10:47.720Z,4.90
2017-12-23T04:13:16.014Z,4.67
2017-12-23T04:15:45.038Z,4.80
2017-12-23T04:18:14.050Z,4.53
2017-12-23T04:20:42.303Z,4.80
2017-12-23T04:23:10.555Z,5.00
2017-12-23T04:25:38.808Z,4.73
2017-12-23T04:28:07.052Z,4.87
2017-12-23T04:30:35.359Z,5.47
2017-12-23T04:33:03.622Z,5.23
2017-12-23T04:35:31.973Z,5.20
2017-12-23T04:38:00.254Z,5.73
2017-12-23T04:40:28.504Z,6.07
2017-12-23T04:42:56.756Z,5.97
2017-12-23T04:45:24.995Z,5.90
2017-12-23T04:47:54.016Z,6.33
2017-12-23T04:50:22.263Z,7.23
2017-12-23T04:52:50.566Z,6.93
2017-12-23T04:55:18.874Z,6.23
2017-12-23T04:57:47.894Z,6.53
2017-12-23T05:00:16.907Z,7.00
2017-12-23T05:02:45.164Z,6.00
2017-12-23T05:05:13.403Z,6.17
2017-12-23T05:07:41.649Z,5.60
2017-12-23T05:10:10.659Z,6.10
2017-12-23T05:12:39.738Z,6.60
2017-12-23T05:15:07.923Z,5.80
2017-12-23T05:17:36.183Z,6.13
2017-12-23T05:20:04.454Z,6.40
2017-12-23T05:22:32.750Z,6.40
2017-12-23T05:25:01.034Z,6.10
2017-12-23T05:27:29.291Z,6.07
2017-12-23T05:29:58.290Z,6.20
2017-12-23T05:32:27.323Z,5.73
2017-12-23T05:34:55.558Z,6.07
2017-12-23T05:37:23.819Z,6.10
2017-12-23T05:39:52.066Z,6.13
2017-12-23T05:42:21.129Z,6.67
2017-12-23T05:44:49.443Z,6.60
2017-12-23T05:47:17.737Z,6.53
2017-12-23T05:49:46.003Z,6.40
2017-12-23T05:52:14.258Z,8.93
2017-12-23T05:54:42.506Z,6.43
2017-12-23T05:57:10.767Z,7.00
2017-12-23T05:59:39.006Z,6.10
2017-12-23T06:02:07.312Z,6.37
2017-12-23T06:04:35.604Z,6.80
2017-12-23T06:07:03.895Z,6.40
2017-12-23T06:09:32.205Z,7.00
2017-12-23T06:12:00.588Z,6.70
2017-12-23T06:14:28.883Z,6.70
2017-12-23T06:16:57.124Z,5.93
2017-12-23T06:19:26.514Z,6.30
2017-12-23T06:21:54.764Z,6.13
2017-12-23T06:24:23.042Z,5.90
2017-12-23T06:26:51.297Z,6.33
2017-12-23T06:29:19.573Z,6.00
2017-12-23T06:31:47.827Z,5.97
2017-12-23T06:34:16.088Z,5.57
2017-12-23T06:36:44.338Z,5.70
2017-12-23T06:39:12.592Z,5.70
2017-12-23T06:41:40.844Z,4.90
2017-12-23T06:44:09.866Z,5.20
2017-12-23T06:46:38.192Z,5.07
2017-12-23T06:49:06.774Z,5.13
2017-12-23T06:51:35.134Z,5.77
2017-12-23T06:54:04.676Z,5.73
2017-12-23T06:56:34.920Z,5.20
2017-12-23T06:59:03.218Z,5.53
2017-12-23T07:01:31.495Z,5.27
2017-12-23T07:03:59.783Z,4.77
2017-12-23T07:06:28.029Z,4.87
2017-12-23T07:08:57.090Z,5.17
2017-12-23T07:11:25.334Z,4.77
2017-12-23T07:13:53.589Z,4.97
2017-12-23T07:16:22.604Z,4.80
2017-12-23T07:18:50.920Z,4.40
2017-12-23T07:21:19.936Z,4.73
2017-12-23T07:23:48.965Z,5.10
2017-12-23T07:26:17.225Z,4.87
2017-12-23T07:28:46.247Z,4.60
2017-12-23T07:31:14.506Z,5.03
2017-12-23T07:33:42.747Z,4.37
2017-12-23T07:36:11.079Z,4.30
2017-12-23T07:38:39.314Z,4.40
2017-12-23T07:41:08.340Z,4.17
2017-12-23T07:43:36.632Z,4.23
2017-12-23T07:46:04.912Z,4.83
2017-12-23T07:48:33.174Z,4.67
2017-12-23T07:51:01.494Z,4.67
2017-12-23T07:53:29.764Z,4.73
2017-12-23T07:55:58.051Z,4.40
2017-12-23T07:58:26.290Z,4.57
2017-12-23T08:00:54.772Z,5.07
2017-12-23T08:03:23.795Z,4.17
2017-12-23T08:05:52.098Z,4.50
2017-12-23T08:08:21.127Z,4.43
2017-12-23T08:10:49.436Z,3.70
2017-12-23T08:13:17.697Z,4.20
2017-12-23T08:15:46.723Z,4.70
2017-12-23T08:18:14.963Z,4.10
2017-12-23T08:20:43.218Z,4.40
2017-12-23T08:23:11.463Z,4.10
2017-12-23T08:25:40.503Z,4.40
2017-12-23T08:28:08.760Z,4.20
2017-12-23T08:30:37.808Z,4.30
2017-12-23T08:33:06.086Z,4.67
2017-12-23T08:35:34.454Z,4.87
2017-12-23T08:38:03.467Z,5.03
2017-12-23T08:40:31.808Z,4.73
2017-12-23T08:43:00.193Z,4.40
2017-12-23T08:45:29.232Z,4.30
2017-12-23T08:47:58.256Z,5.03
2017-12-23T08:50:27.279Z,4.37
2017-12-23T08:52:55.519Z,5.17
2017-12-23T08:55:23.789Z,4.80
2017-12-23T08:57:52.082Z,4.20
2017-12-23T09:00:20.419Z,4.37
2017-12-23T09:02:49.470Z,4.23
2017-12-23T09:05:17.722Z,4.40
2017-12-23T09:07:46.746Z,5.10
2017-12-23T09:10:14.988Z,4.27
2017-12-23T09:12:43.247Z,4.50
2017-12-23T09:15:11.499Z,4.63
2017-12-23T09:17:39.783Z,4.00
2017-12-23T09:20:08.819Z,4.43
2017-12-23T09:22:37.126Z,4.57
2017-12-23T09:28:05.479Z,4.53
2017-12-23T09:30:33.790Z,4.27
2017-12-23T09:33:02.083Z,4.00
2017-12-23T09:35:31.154Z,3.97
2017-12-23T09:37:59.411Z,4.30
2017-12-23T09:40:28.447Z,3.87
2017-12-23T09:42:56.690Z,4.13
2017-12-23T09:45:24.934Z,4.13
2017-12-23T09:47:53.181Z,3.60
2017-12-23T09:50:21.426Z,3.23
2017-12-23T09:52:51.058Z,3.83
2017-12-23T09:55:20.090Z,3.60
2017-12-23T09:57:48.469Z,3.23
2017-12-23T10:00:17.481Z,3.07
2017-12-23T10:02:45.746Z,3.10
2017-12-23T10:05:14.763Z,3.37
2017-12-23T10:07:43.782Z,2.67
2017-12-23T10:10:12.031Z,2.53
2017-12-23T10:12:40.310Z,2.93
2017-12-23T10:15:08.607Z,3.30
2017-12-23T10:17:36.862Z,2.53
2017-12-23T10:20:05.157Z,2.93
2017-12-23T10:22:33.474Z,2.97
2017-12-23T10:25:01.717Z,2.80
2017-12-23T10:27:30.094Z,2.63
2017-12-23T10:29:59.151Z,2.67
2017-12-23T10:32:28.120Z,3.13
2017-12-23T10:34:56.379Z,3.20
2017-12-23T10:37:25.417Z,2.83
2017-12-23T10:39:53.671Z,2.53
2017-12-23T10:42:22.705Z,2.70
2017-12-23T10:44:50.993Z,2.60
2017-12-23T10:47:19.296Z,2.43
2017-12-23T10:49:47.535Z,2.80
2017-12-23T10:52:16.830Z,2.70
2017-12-23T10:54:45.067Z,3.10
2017-12-23T10:57:13.355Z,3.00
2017-12-23T10:59:41.607Z,3.70
2017-12-23T11:02:09.858Z,2.90
2017-12-23T11:04:38.119Z,2.90
2017-12-23T11:07:06.375Z,4.47
2017-12-23T11:09:35.648Z,3.60
2017-12-23T11:12:03.929Z,3.57
2017-12-23T11:14:32.253Z,3.33
2017-12-23T11:17:00.554Z,3.60
2017-12-23T11:19:28.807Z,3.57
2017-12-23T11:21:57.060Z,3.40
2017-12-23T11:24:26.076Z,3.70
2017-12-23T11:26:54.324Z,4.00
2017-12-23T11:29:22.579Z,4.20
2017-12-23T11:31:50.839Z,3.57
2017-12-23T11:34:19.106Z,3.80
2017-12-23T11:36:48.137Z,3.77
2017-12-23T11:39:16.386Z,3.50
2017-12-23T11:41:44.627Z,3.63
2017-12-23T11:44:12.890Z,3.53
2017-12-23T11:46:41.967Z,4.27
2017-12-23T11:49:10.224Z,4.07
2017-12-23T11:51:38.468Z,3.90
2017-12-23T11:54:07.512Z,4.33
2017-12-23T11:56:35.779Z,3.83
2017-12-23T11:59:04.808Z,3.83
2017-12-23T12:01:33.100Z,3.87
2017-12-23T12:04:01.424Z,3.37
2017-12-23T12:06:29.686Z,3.30
2017-12-23T12:08:57.956Z,3.27
2017-12-23T12:11:26.198Z,3.70
2017-12-23T12:13:54.493Z,3.07
2017-12-23T12:16:22.731Z,3.17
2017-12-23T12:18:51.745Z,2.80
2017-12-23T12:21:20.049Z,2.83
2017-12-23T12:23:48.329Z,2.70
2017-12-23T12:26:16.578Z,2.90
2017-12-23T12:28:45.606Z,2.97
2017-12-23T12:31:13.871Z,2.37
2017-12-23T12:33:42.877Z,2.70
2017-12-23T12:36:11.892Z,2.50
2017-12-23T12:38:40.956Z,2.03
2017-12-23T12:41:09.168Z,2.10
2017-12-23T12:43:37.409Z,1.90
2017-12-23T12:46:06.431Z,2.00
2017-12-23T12:48:35.646Z,2.53
2017-12-23T12:51:04.123Z,2.30
2017-12-23T12:53:32.497Z,2.30
2017-12-23T12:56:00.806Z,2.80
2017-12-23T12:58:29.090Z,2.50
2017-12-23T13:00:57.394Z,2.27
2017-12-23T13:03:25.635Z,1.70
2017-12-23T13:05:53.887Z,2.37
2017-12-23T13:08:22.143Z,1.93
2017-12-23T13:10:50.406Z,2.00
2017-12-23T13:13:18.743Z,1.90
2017-12-23T13:15:47.794Z,2.00
2017-12-23T13:18:16.049Z,2.20
2017-12-23T13:20:44.311Z,2.00
2017-12-23T13:23:13.316Z,1.90
2017-12-23T13:25:41.581Z,1.70
2017-12-23T13:28:09.830Z,1.50
2017-12-23T13:30:38.087Z,1.50
2017-12-23T13:33:06.348Z,1.37
2017-12-23T13:35:34.746Z,1.57
2017-12-23T13:38:03.008Z,1.23
2017-12-23T13:40:32.122Z,1.70
2017-12-23T13:43:00.471Z,1.80
2017-12-23T13:45:28.744Z,1.67
2017-12-23T13:47:56.984Z,1.80
2017-12-23T13:50:26.007Z,1.40
2017-12-23T13:52:54.266Z,1.60
2017-12-23T13:55:22.518Z,1.70
2017-12-23T13:57:50.860Z,1.70
2017-12-23T14:00:19.915Z,1.63
2017-12-23T14:02:48.174Z,1.70
2017-12-23T14:05:16.430Z,1.63
2017-12-23T14:07:44.684Z,1.60
2017-12-23T14:10:12.943Z,1.57
2017-12-23T14:12:41.196Z,1.70
2017-12-23T14:15:10.215Z,1.80
2017-12-23T14:17:39.516Z,1.80
2017-12-23T14:20:07.763Z,1.70
2017-12-23T14:22:36.066Z,1.97
2017-12-23T14:25:04.351Z,1.73
2017-12-23T14:27:32.745Z,2.20
2017-12-23T14:30:01.130Z,2.27
2017-12-23T14:32:29.461Z,1.90
2017-12-23T14:34:57.735Z,1.90
2017-12-23T14:37:25.994Z,2.23
2017-12-23T14:39:54.277Z,2.30
2017-12-23T14:42:22.539Z,2.40
2017-12-23T14:44:51.543Z,2.43
2017-12-23T14:47:19.818Z,2.30
2017-12-23T14:49:48.833Z,2.80
2017-12-23T14:52:17.852Z,2.87
2017-12-23T14:54:46.112Z,2.97
2017-12-23T14:57:14.370Z,3.20
2017-12-23T14:59:42.610Z,3.47
2017-12-23T15:02:10.858Z,3.70
2017-12-23T15:04:39.100Z,3.07
2017-12-23T15:07:07.358Z,3.00
2017-12-23T15:09:35.702Z,3.40
2017-12-23T15:12:04.019Z,3.27
2017-12-23T15:14:32.339Z,2.97
2017-12-23T15:17:00.770Z,3.07
2017-12-23T15:19:29.034Z,3.07
2017-12-23T15:21:58.050Z,2.87
2017-12-23T15:24:26.324Z,3.30
2017-12-23T15:26:54.575Z,2.40
2017-12-23T15:29:22.859Z,2.77
2017-12-23T15:31:51.161Z,2.40
2017-12-23T15:34:19.486Z,2.97
2017-12-23T15:36:47.749Z,2.23
2017-12-23T15:39:16.871Z,2.50
2017-12-23T15:41:45.870Z,2.40
2017-12-23T15:44:14.884Z,2.63
2017-12-23T15:46:43.934Z,2.80
2017-12-23T15:49:12.181Z,3.07
2017-12-23T15:51:40.454Z,3.47
2017-12-23T15:54:09.485Z,2.30
2017-12-23T15:56:37.738Z,2.53
2017-12-23T15:59:06.026Z,2.40
2017-12-23T16:01:34.338Z,2.60
2017-12-23T16:04:03.574Z,2.47
2017-12-23T16:06:32.049Z,2.80
2017-12-23T16:09:01.513Z,2.70
2017-12-23T16:11:29.804Z,3.20
2017-12-23T16:13:58.067Z,2.97
2017-12-23T16:16:26.341Z,3.00
2017-12-23T16:18:55.402Z,3.00
2017-12-23T16:21:23.688Z,2.77
2017-12-23T16:23:51.936Z,3.27
2017-12-23T16:26:20.323Z,2.93
2017-12-23T16:28:49.406Z,2.60
2017-12-23T16:31:17.658Z,2.80
2017-12-23T16:33:45.939Z,4.20
2017-12-23T16:36:14.222Z,3.53
2017-12-23T16:38:42.490Z,3.03
2017-12-23T16:41:10.739Z,2.97
2017-12-23T16:43:39.090Z,2.67
2017-12-23T16:46:07.392Z,3.37
2017-12-23T16:48:35.671Z,2.47
2017-12-23T16:51:04.046Z,2.47
2017-12-23T16:53:32.445Z,4.27
2017-12-23T16:56:00.818Z,5.33
2017-12-23T16:58:29.082Z,3.83
2017-12-23T17:00:58.098Z,3.63
2017-12-23T17:03:27.135Z,4.63
2017-12-23T17:05:55.424Z,4.17
2017-12-23T17:08:23.671Z,2.60
2017-12-23T17:10:52.694Z,3.10
2017-12-23T17:13:21.714Z,3.73
2017-12-23T17:15:49.979Z,3.60
2017-12-23T17:18:19.004Z,4.80
2017-12-23T17:20:47.298Z,7.67
2017-12-23T17:23:15.603Z,14.07
2017-12-23T17:25:43.922Z,9.97
2017-12-23T17:28:17.962Z,5.80
2017-12-23T17:30:46.291Z,4.20
2017-12-23T17:33:14.531Z,3.83
2017-12-23T17:35:42.798Z,3.87
2017-12-23T17:38:11.098Z,3.37
2017-12-23T17:40:39.343Z,3.53
2017-12-23T17:43:07.601Z,3.70
2017-12-23T17:45:35.926Z,3.47
2017-12-23T17:48:04.981Z,3.60
2017-12-23T17:50:33.357Z,4.10
2017-12-23T17:53:01.629Z,3.60
2017-12-23T17:55:29.977Z,3.27
2017-12-23T17:57:58.267Z,3.27
2017-12-23T18:00:26.589Z,12.53
2017-12-23T18:02:54.902Z,7.60
2017-12-23T18:05:23.229Z,10.27
2017-12-23T18:07:51.470Z,4.37
2017-12-23T18:10:19.749Z,3.77
2017-12-23T18:12:48.051Z,3.40
2017-12-23T18:15:16.356Z,3.30
2017-12-23T18:17:44.602Z,3.23
2017-12-23T18:20:13.630Z,3.50
2017-12-23T18:22:41.910Z,3.97
2017-12-23T18:25:10.185Z,4.10
2017-12-23T18:27:39.248Z,3.10
2017-12-23T18:30:07.544Z,5.17
2017-12-23T18:32:35.851Z,4.33
2017-12-23T18:35:04.090Z,3.77
2017-12-23T18:37:32.442Z,4.23
2017-12-23T18:40:01.523Z,3.87
2017-12-23T18:42:29.842Z,3.70
2017-12-23T18:44:58.894Z,3.90
2017-12-23T18:47:27.159Z,4.30
2017-12-23T18:49:55.400Z,4.47
2017-12-23T18:52:23.661Z,4.80
2017-12-23T18:54:51.945Z,4.93
2017-12-23T18:57:20.204Z,4.53
2017-12-23T18:59:48.463Z,4.27
2017-12-23T19:02:16.778Z,4.40
2017-12-23T19:04:45.784Z,3.77
2017-12-23T19:07:15.230Z,4.13
2017-12-23T19:09:43.467Z,3.87
2017-12-23T19:12:11.769Z,3.53
2017-12-23T19:14:40.817Z,3.30
2017-12-23T19:17:09.096Z,4.00
2017-12-23T19:19:37.326Z,3.47
2017-12-23T19:22:05.614Z,3.23
2017-12-23T19:24:33.977Z,3.70
2017-12-23T19:27:02.313Z,3.70
2017-12-23T19:29:30.635Z,4.07
2017-12-23T19:31:58.928Z,4.80
2017-12-23T19:34:27.233Z,5.37
2017-12-23T19:36:55.538Z,5.10
2017-12-23T19:39:23.830Z,4.63
2017-12-23T19:41:52.122Z,4.50
2017-12-23T19:44:20.421Z,3.90
2017-12-23T19:46:48.781Z,4.00
2017-12-23T19:49:17.069Z,4.23
2017-12-23T19:51:45.366Z,3.83
2017-12-23T19:54:13.673Z,4.10
2017-12-23T19:56:41.995Z,3.57
2017-12-23T19:59:10.317Z,3.50
2017-12-23T20:01:38.597Z,3.33
2017-12-23T20:04:06.895Z,3.30
2017-12-23T20:06:35.218Z,3.40
2017-12-23T20:09:03.673Z,2.90
2017-12-23T20:11:32.006Z,2.90
2017-12-23T20:14:00.308Z,3.17
2017-12-23T20:16:28.587Z,3.00
2017-12-23T20:18:56.907Z,2.33
2017-12-23T20:21:25.209Z,2.60
2017-12-23T20:23:54.269Z,2.20
2017-12-23T20:26:22.574Z,2.50
2017-12-23T20:28:50.884Z,2.30
2017-12-23T20:31:19.969Z,2.50
2017-12-23T20:33:48.354Z,2.40
2017-12-23T20:36:17.428Z,2.27
2017-12-23T20:38:45.734Z,2.60
2017-12-23T20:41:14.100Z,2.60
2017-12-23T20:43:42.424Z,2.53
2017-12-23T20:46:10.714Z,2.50
2017-12-23T20:48:39.051Z,2.60
2017-12-23T20:51:08.151Z,2.63
2017-12-23T20:53:37.260Z,2.43
2017-12-23T20:56:05.569Z,2.70
2017-12-23T20:58:34.680Z,2.40
2017-12-23T21:01:03.096Z,2.90
2017-12-23T21:03:31.450Z,2.83
2017-12-23T21:06:00.573Z,2.63
2017-12-23T21:08:29.237Z,2.57
2017-12-23T21:10:57.482Z,2.67
2017-12-23T21:13:25.791Z,3.00
2017-12-23T21:15:54.112Z,2.80
2017-12-23T21:18:22.367Z,3.67
2017-12-23T21:20:50.693Z,3.10
2017-12-23T21:23:18.991Z,3.30
2017-12-23T21:25:48.212Z,2.53
2017-12-23T21:28:16.526Z,2.83
2017-12-23T21:30:44.814Z,2.60
2017-12-23T21:33:13.135Z,2.87
2017-12-23T21:35:41.487Z,2.90
2017-12-23T21:38:09.798Z,2.50
2017-12-23T21:40:38.139Z,2.37
2017-12-23T21:43:06.419Z,2.23
2017-12-23T21:45:34.812Z,2.07
2017-12-23T21:48:03.422Z,2.30
2017-12-23T21:50:32.662Z,2.10
2017-12-23T21:53:01.076Z,2.20
2017-12-23T21:55:29.397Z,2.10
2017-12-23T21:57:58.423Z,2.13
2017-12-23T22:00:27.501Z,2.43
2017-12-23T22:02:55.782Z,2.67
2017-12-23T22:05:24.083Z,2.80
2017-12-23T22:07:53.179Z,2.13
2017-12-23T22:10:23.238Z,1.80
2017-12-23T22:12:51.534Z,2.03
2017-12-23T22:15:20.060Z,1.80
2017-12-23T22:17:48.490Z,1.93
2017-12-23T22:20:17.780Z,1.90
2017-12-23T22:22:46.074Z,1.97
2017-12-23T22:25:14.397Z,2.10
2017-12-23T22:27:42.946Z,1.77
2017-12-23T22:30:11.277Z,1.70
2017-12-23T22:32:39.561Z,1.20
2017-12-23T22:35:07.874Z,1.30
2017-12-23T22:37:36.182Z,1.30
2017-12-23T22:40:04.593Z,2.00
2017-12-23T22:42:34.701Z,2.80
2017-12-23T22:45:03.810Z,2.80
2017-12-23T22:47:32.185Z,2.00
2017-12-23T22:50:00.532Z,1.90
2017-12-23T22:52:28.914Z,1.60
2017-12-23T22:54:57.201Z,2.10
2017-12-23T22:57:25.503Z,1.33
2017-12-23T22:59:53.826Z,1.33
2017-12-23T23:02:22.128Z,1.90
2017-12-23T23:04:50.476Z,1.57
2017-12-23T23:07:18.934Z,2.07
2017-12-23T23:09:48.003Z,1.87
2017-12-23T23:12:16.255Z,2.07
2017-12-23T23:14:44.537Z,1.83
2017-12-23T23:17:12.838Z,1.50
2017-12-23T23:19:41.134Z,1.73
2017-12-23T23:22:09.423Z,1.77
2017-12-23T23:24:37.660Z,2.17
2017-12-23T23:27:05.964Z,2.10
2017-12-23T23:29:35.075Z,1.50
2017-12-23T23:32:03.432Z,1.50
2017-12-23T23:34:32.569Z,1.40
2017-12-23T23:37:01.716Z,1.60
2017-12-23T23:39:30.072Z,1.80
2017-12-23T23:41:59.142Z,1.87
2017-12-23T23:44:27.401Z,1.93
2017-12-23T23:46:55.658Z,2.60
2017-12-23T23:49:24.663Z,2.20
2017-12-23T23:51:53.729Z,2.30
2017-12-23T23:54:21.962Z,2.17
2017-12-23T23:56:50.315Z,2.07
2017-12-23T23:59:18.636Z,2.43
